Time,TemperatureF,DewpointF,PressureIn,WindDirection,WindDirectionDegrees,WindSpeedMPH,WindSpeedGustMPH,Humidity,HourlyPrecipIn,Conditions,Clouds,dailyrainin,SoftwareType,DateUTC
2013-06-27 00:00:00,67.8,66.3,29.88,ENE,68,0.0,0.0,95,0.00,,---,0.00,VWS V14.00,2013-06-27 04:00:00,
2013-06-27 00:01:00,67.8,66.3,29.88,ENE,68,0.0,0.0,95,0.00,,---,0.00,VWS V14.00,2013-06-27 04:01:00,
2013-06-27 00:06:00,67.8,66.3,29.88,ENE,68,0.0,0.0,95,0.00,,---,0.00,VWS V14.00,2013-06-27 04:06:00,
2013-06-27 00:11:00,67.8,66.3,29.88,ENE,68,0.0,0.0,95,0.00,,---,0.00,VWS V14.00,2013-06-27 04:11:00,
2013-06-27 00:16:00,67.8,66.3,29.88,ENE,68,0.0,0.0,95,0.00,,---,0.00,VWS V14.00,2013-06-27 04:16:00,
2013-06-27 00:21:00,67.6,66.2,29.88,ENE,68,0.0,0.0,95,0.00,,---,0.00,VWS V14.00,2013-06-27 04:21:00,
2013-06-27 00:26:00,67.6,66.2,29.88,ENE,68,0.0,0.0,95,0.00,,---,0.00,VWS V14.00,2013-06-27 04:26:00,
2013-06-27 00:31:00,67.6,66.2,29.88,ENE,68,0.0,0.0,95,0.00,,---,0.00,VWS V14.00,2013-06-27 04:31:00,
2013-06-27 00:36:00,67.6,66.2,29.88,ENE,68,0.0,0.0,95,0.00,,---,0.00,VWS V14.00,2013-06-27 04:36:00,
2013-06-27 00:41:00,67.6,66.2,29.88,ENE,68,0.0,0.0,95,0.00,,---,0.00,VWS V14.00,2013-06-27 04:41:00,
2013-06-27 00:46:00,67.5,66.0,29.88,ENE,68,0.0,0.0,95,0.00,,---,0.00,VWS V14.00,2013-06-27 04:46:00,
2013-06-27 00:51:00,67.5,66.0,29.88,ENE,68,0.0,0.0,95,0.00,,---,0.00,VWS V14.00,2013-06-27 04:51:00,
2013-06-27 00:56:00,67.5,66.0,29.88,ENE,68,0.0,0.0,95,0.00,,---,0.00,VWS V14.00,2013-06-27 04:56:00,
2013-06-27 01:01:00,67.3,65.8,29.88,ENE,68,0.0,0.0,95,0.00,,---,0.00,VWS V14.00,2013-06-27 05:01:00,
2013-06-27 01:06:00,67.5,66.0,29.88,ENE,68,0.0,0.0,95,0.00,,---,0.00,VWS V14.00,2013-06-27 05:06:00,
2013-06-27 01:11:00,67.3,65.8,29.88,ENE,68,0.0,0.0,95,0.00,,---,0.00,VWS V14.00,2013-06-27 05:11:00,
2013-06-27 02:25:00,66.6,65.4,29.85,East,90,0.0,0.0,96,0.00,,---,0.00,VWS V14.00,2013-06-27 06:25:00,
2013-06-27 02:30:00,66.7,65.6,29.85,East,90,0.0,0.0,96,0.00,,---,0.00,VWS V14.00,2013-06-27 06:30:00,
2013-06-27 02:35:00,66.6,65.4,29.85,East,90,0.0,0.0,96,0.00,,---,0.00,VWS V14.00,2013-06-27 06:35:00,
2013-06-27 02:40:00,66.7,65.6,29.85,East,90,0.0,0.0,96,0.00,,---,0.00,VWS V14.00,2013-06-27 06:40:00,
2013-06-27 02:45:00,66.7,65.6,29.85,East,90,0.0,0.0,96,0.00,,---,0.00,VWS V14.00,2013-06-27 06:45:00,
2013-06-27 02:50:00,66.9,65.8,29.85,East,90,0.0,0.0,96,0.00,,---,0.00,VWS V14.00,2013-06-27 06:50:00,
2013-06-27 02:55:00,66.9,65.8,29.85,East,90,0.0,0.0,96,0.00,,---,0.00,VWS V14.00,2013-06-27 06:55:00,
2013-06-27 03:00:00,66.9,65.8,29.85,East,90,0.0,0.0,96,0.00,,---,0.00,VWS V14.00,2013-06-27 07:00:00,
2013-06-27 03:05:00,66.9,65.8,29.85,East,90,0.0,0.0,96,0.00,,---,0.00,VWS V14.00,2013-06-27 07:05:00,
2013-06-27 03:10:00,66.9,65.8,29.85,East,90,0.0,0.0,96,0.00,,---,0.00,VWS V14.00,2013-06-27 07:10:00,
2013-06-27 03:15:00,66.9,65.8,29.85,East,90,0.0,0.0,96,0.00,,---,0.00,VWS V14.00,2013-06-27 07:15:00,
2013-06-27 03:20:00,66.7,65.6,29.85,East,90,0.0,0.0,96,0.00,,---,0.00,VWS V14.00,2013-06-27 07:20:00,
2013-06-27 03:25:00,66.7,65.6,29.85,East,90,0.0,0.0,96,0.00,,---,0.00,VWS V14.00,2013-06-27 07:25:00,
2013-06-27 03:30:00,66.6,65.4,29.85,East,90,0.0,0.0,96,0.00,,---,0.00,VWS V14.00,2013-06-27 07:30:00,
2013-06-27 03:35:00,66.6,65.4,29.85,East,90,0.0,0.0,96,0.00,,---,0.00,VWS V14.00,2013-06-27 07:35:00,
2013-06-27 03:40:00,66.7,65.6,29.85,East,90,0.0,0.0,96,0.00,,---,0.00,VWS V14.00,2013-06-27 07:40:00,
2013-06-27 03:45:00,66.9,65.8,29.85,East,90,0.0,0.0,96,0.00,,---,0.00,VWS V14.00,2013-06-27 07:45:00,
2013-06-27 03:50:00,66.9,65.8,29.85,East,90,0.0,0.0,96,0.00,,---,0.00,VWS V14.00,2013-06-27 07:50:00,
2013-06-27 03:55:00,66.9,65.8,29.85,East,90,0.0,0.0,96,0.00,,---,0.00,VWS V14.00,2013-06-27 07:55:00,
2013-06-27 04:00:00,66.9,65.8,29.85,East,90,0.0,0.0,96,0.00,,---,0.00,VWS V14.00,2013-06-27 08:00:00,
2013-06-27 04:05:00,66.9,65.8,29.85,East,90,0.0,0.0,96,0.00,,---,0.00,VWS V14.00,2013-06-27 08:05:00,
2013-06-27 04:10:00,66.9,65.8,29.82,East,90,0.0,0.0,96,0.00,,---,0.00,VWS V14.00,2013-06-27 08:10:00,
2013-06-27 04:15:00,66.7,65.6,29.82,East,90,0.0,0.0,96,0.00,,---,0.00,VWS V14.00,2013-06-27 08:15:00,
2013-06-27 04:20:00,66.9,65.8,29.82,East,90,0.0,0.0,96,0.00,,---,0.00,VWS V14.00,2013-06-27 08:20:00,
2013-06-27 04:25:00,66.9,65.8,29.85,East,90,0.0,0.0,96,0.00,,---,0.00,VWS V14.00,2013-06-27 08:25:00,
2013-06-27 04:30:00,66.9,65.8,29.85,East,90,0.0,0.0,96,0.00,,---,0.00,VWS V14.00,2013-06-27 08:30:00,
2013-06-27 04:35:00,66.9,65.8,29.85,East,90,0.0,0.0,96,0.00,,---,0.00,VWS V14.00,2013-06-27 08:35:00,
2013-06-27 04:40:00,67.1,65.9,29.85,East,90,0.0,0.0,96,0.00,,---,0.00,VWS V14.00,2013-06-27 08:40:00,
2013-06-27 04:45:00,67.3,66.1,29.85,East,90,0.0,0.0,96,0.00,,---,0.00,VWS V14.00,2013-06-27 08:45:00,
2013-06-27 04:50:00,67.3,66.1,29.85,East,90,0.0,0.0,96,0.00,,---,0.00,VWS V14.00,2013-06-27 08:50:00,
2013-06-27 04:55:00,67.3,66.1,29.85,East,90,0.0,0.0,96,0.00,,---,0.00,VWS V14.00,2013-06-27 08:55:00,
2013-06-27 05:00:00,67.5,66.3,29.85,East,90,0.0,0.0,96,0.00,,---,0.00,VWS V14.00,2013-06-27 09:00:00,
2013-06-27 05:05:00,67.5,66.3,29.85,East,90,0.0,0.0,96,0.00,,---,0.00,VWS V14.00,2013-06-27 09:05:00,
2013-06-27 05:10:00,67.6,66.5,29.85,East,90,0.0,0.0,96,0.00,,---,0.00,VWS V14.00,2013-06-27 09:10:00,
2013-06-27 05:15:00,67.6,66.5,29.85,East,90,0.0,0.0,96,0.00,,---,0.00,VWS V14.00,2013-06-27 09:15:00,
2013-06-27 05:20:00,67.6,66.5,29.85,North,0,0.0,0.0,96,0.00,,---,0.00,VWS V14.00,2013-06-27 09:20:00,
2013-06-27 05:25:00,67.8,66.6,29.88,NE,45,0.0,0.0,96,0.00,,---,0.00,VWS V14.00,2013-06-27 09:25:00,
2013-06-27 05:30:00,67.8,66.6,29.88,NE,45,0.0,0.0,96,0.00,,---,0.00,VWS V14.00,2013-06-27 09:30:00,
2013-06-27 05:35:00,67.8,66.6,29.88,NE,45,0.0,0.0,96,0.00,,---,0.00,VWS V14.00,2013-06-27 09:35:00,
2013-06-27 05:40:00,67.8,66.6,29.88,NE,45,0.0,0.0,96,0.00,,---,0.00,VWS V14.00,2013-06-27 09:40:00,
2013-06-27 05:45:00,68.0,66.8,29.88,NNE,22,0.0,0.0,96,0.00,,---,0.00,VWS V14.00,2013-06-27 09:45:00,
2013-06-27 05:50:00,68.0,66.8,29.88,ENE,68,0.0,0.0,96,0.00,,---,0.00,VWS V14.00,2013-06-27 09:50:00,
2013-06-27 05:55:00,68.0,66.8,29.88,ENE,68,0.0,0.0,96,0.00,,---,0.00,VWS V14.00,2013-06-27 09:55:00,
2013-06-27 06:00:00,68.2,67.0,29.88,ENE,68,0.0,0.0,96,0.00,,---,0.00,VWS V14.00,2013-06-27 10:00:00,
2013-06-27 06:05:00,68.0,66.8,29.88,ENE,68,0.0,0.0,96,0.00,,---,0.00,VWS V14.00,2013-06-27 10:05:00,
2013-06-27 06:10:00,68.2,67.0,29.88,NE,45,0.0,0.0,96,0.00,,---,0.00,VWS V14.00,2013-06-27 10:10:00,
2013-06-27 06:15:00,68.2,67.0,29.88,NE,45,0.0,0.0,96,0.00,,---,0.00,VWS V14.00,2013-06-27 10:15:00,
2013-06-27 06:20:00,68.4,67.2,29.88,NE,45,0.0,0.0,96,0.00,,---,0.00,VWS V14.00,2013-06-27 10:20:00,
2013-06-27 06:25:00,68.4,67.2,29.88,NE,45,0.0,0.0,96,0.00,,---,0.00,VWS V14.00,2013-06-27 10:25:00,
2013-06-27 06:30:00,68.4,67.2,29.88,NE,45,0.0,0.0,96,0.00,,---,0.00,VWS V14.00,2013-06-27 10:30:00,
2013-06-27 06:35:00,68.5,67.4,29.88,NE,45,0.0,0.0,96,0.00,,---,0.00,VWS V14.00,2013-06-27 10:35:00,
2013-06-27 06:40:00,68.5,67.4,29.88,NNE,22,0.0,0.0,96,0.00,,---,0.00,VWS V14.00,2013-06-27 10:40:00,
2013-06-27 06:45:00,68.5,67.4,29.88,ENE,68,0.0,0.0,96,0.00,,---,0.00,VWS V14.00,2013-06-27 10:45:00,
2013-06-27 06:50:00,68.7,67.5,29.88,ENE,68,0.0,0.0,96,0.00,,---,0.00,VWS V14.00,2013-06-27 10:50:00,
2013-06-27 06:55:00,68.9,67.7,29.88,ENE,68,0.0,0.0,96,0.00,,---,0.00,VWS V14.00,2013-06-27 10:55:00,
2013-06-27 07:00:00,68.9,67.7,29.88,ENE,68,0.0,0.0,96,0.00,,---,0.00,VWS V14.00,2013-06-27 11:00:00,
2013-06-27 07:05:00,69.1,67.9,29.88,NE,45,0.0,0.0,96,0.00,,---,0.00,VWS V14.00,2013-06-27 11:05:00,
2013-06-27 07:10:00,69.1,67.9,29.88,NE,45,0.0,0.0,96,0.00,,---,0.00,VWS V14.00,2013-06-27 11:10:00,
2013-06-27 07:15:00,69.1,67.9,29.88,NE,45,0.0,0.0,96,0.00,,---,0.00,VWS V14.00,2013-06-27 11:15:00,
2013-06-27 07:20:00,69.1,67.9,29.88,NE,45,0.0,0.0,96,0.00,,---,0.00,VWS V14.00,2013-06-27 11:20:00,
2013-06-27 07:25:00,69.1,67.9,29.88,NNW,338,0.0,0.0,96,0.00,,---,0.00,VWS V14.00,2013-06-27 11:25:00,
2013-06-27 07:30:00,69.1,67.9,29.88,NNW,338,0.0,0.0,96,0.00,,---,0.00,VWS V14.00,2013-06-27 11:30:00,
2013-06-27 07:35:00,69.3,68.1,29.88,NE,45,0.0,0.0,96,0.00,,---,0.00,VWS V14.00,2013-06-27 11:35:00,
2013-06-27 07:40:00,69.3,68.1,29.88,NE,45,0.0,0.0,96,0.00,,---,0.00,VWS V14.00,2013-06-27 11:40:00,
2013-06-27 07:45:00,69.3,68.1,29.88,NW,315,0.0,0.0,96,0.00,,---,0.00,VWS V14.00,2013-06-27 11:45:00,
2013-06-27 07:50:00,69.3,68.1,29.88,NE,45,0.9,0.9,96,0.00,,---,0.00,VWS V14.00,2013-06-27 11:50:00,
2013-06-27 07:55:00,69.3,68.1,29.88,NE,45,0.0,0.0,96,0.00,,---,0.00,VWS V14.00,2013-06-27 11:55:00,
2013-06-27 08:00:00,69.3,68.1,29.88,NE,45,0.0,2.7,96,0.00,,---,0.00,VWS V14.00,2013-06-27 12:00:00,
2013-06-27 08:05:00,69.3,68.1,29.88,NE,45,0.0,0.0,96,0.00,,---,0.00,VWS V14.00,2013-06-27 12:05:00,
2013-06-27 08:10:00,69.4,68.2,29.88,NE,45,0.0,2.2,96,0.00,,---,0.00,VWS V14.00,2013-06-27 12:10:00,
2013-06-27 08:15:00,69.4,68.2,29.88,NE,45,0.0,0.0,96,0.00,,---,0.00,VWS V14.00,2013-06-27 12:15:00,
2013-06-27 08:20:00,69.4,68.2,29.88,NE,45,0.0,0.0,96,0.00,,---,0.00,VWS V14.00,2013-06-27 12:20:00,
2013-06-27 08:25:00,69.6,68.4,29.88,NE,45,0.0,0.0,96,0.00,,---,0.00,VWS V14.00,2013-06-27 12:25:00,
2013-06-27 08:30:00,69.6,68.4,29.88,NE,45,0.0,0.0,96,0.00,,---,0.00,VWS V14.00,2013-06-27 12:30:00,
2013-06-27 08:34:00,69.8,68.3,29.88,NE,45,0.0,0.0,95,0.00,,---,0.00,VWS V14.00,2013-06-27 12:34:00,
2013-06-27 08:39:00,70.0,68.5,29.88,NE,45,0.0,0.0,95,0.00,,---,0.00,VWS V14.00,2013-06-27 12:39:00,
2013-06-27 08:44:00,70.2,68.7,29.88,NE,45,0.0,0.0,95,0.00,,---,0.00,VWS V14.00,2013-06-27 12:44:00,
2013-06-27 08:49:00,70.3,68.8,29.88,East,90,0.0,0.9,95,0.00,,---,0.00,VWS V14.00,2013-06-27 12:49:00,
2013-06-27 08:54:00,70.7,69.2,29.88,NE,45,0.0,0.0,95,0.00,,---,0.00,VWS V14.00,2013-06-27 12:54:00,
2013-06-27 08:59:00,70.9,69.4,29.88,North,0,0.0,0.0,95,0.00,,---,0.00,VWS V14.00,2013-06-27 12:59:00,
2013-06-27 09:04:00,70.9,69.4,29.88,East,90,0.0,1.1,95,0.00,,---,0.00,VWS V14.00,2013-06-27 13:04:00,
2013-06-27 09:09:00,71.2,69.7,29.88,North,0,0.0,0.9,95,0.00,,---,0.00,VWS V14.00,2013-06-27 13:09:00,
2013-06-27 09:14:00,71.4,69.9,29.88,SE,135,0.0,1.3,95,0.00,,---,0.00,VWS V14.00,2013-06-27 13:14:00,
2013-06-27 09:19:00,71.6,70.1,29.88,NNW,338,0.0,0.0,95,0.00,,---,0.00,VWS V14.00,2013-06-27 13:19:00,
2013-06-27 09:24:00,71.6,69.8,29.85,ESE,112,0.0,0.0,94,0.00,,---,0.00,VWS V14.00,2013-06-27 13:24:00,
2013-06-27 09:29:00,71.4,69.9,29.85,SE,135,0.0,0.0,95,0.00,,---,0.00,VWS V14.00,2013-06-27 13:29:00,
2013-06-27 09:34:00,71.6,69.8,29.85,East,90,0.0,1.1,94,0.00,,---,0.00,VWS V14.00,2013-06-27 13:34:00,
2013-06-27 09:39:00,71.6,69.8,29.85,ENE,68,0.0,1.1,94,0.00,,---,0.00,VWS V14.00,2013-06-27 13:39:00,
2013-06-27 09:44:00,71.6,69.8,29.85,East,90,0.0,0.0,94,0.00,,---,0.00,VWS V14.00,2013-06-27 13:44:00,
2013-06-27 09:49:00,71.4,69.6,29.85,NW,315,2.9,2.9,94,0.00,,---,0.00,VWS V14.00,2013-06-27 13:49:00,
2013-06-27 09:54:00,71.8,70.0,29.88,NE,45,1.3,2.2,94,0.00,,---,0.00,VWS V14.00,2013-06-27 13:54:00,
2013-06-27 09:59:00,72.1,70.0,29.88,East,90,0.0,0.0,93,0.00,,---,0.00,VWS V14.00,2013-06-27 13:59:00,
2013-06-27 10:04:00,72.3,70.2,29.88,North,0,0.0,2.5,93,0.00,,---,0.00,VWS V14.00,2013-06-27 14:04:00,
2013-06-27 10:09:00,72.1,70.0,29.88,ENE,68,1.3,1.3,93,0.00,,---,0.00,VWS V14.00,2013-06-27 14:09:00,
2013-06-27 10:14:00,72.3,70.2,29.88,NE,45,1.1,1.1,93,0.00,,---,0.00,VWS V14.00,2013-06-27 14:14:00,
2013-06-27 10:19:00,72.5,70.4,29.88,ESE,112,0.0,1.1,93,0.00,,---,0.00,VWS V14.00,2013-06-27 14:19:00,
2013-06-27 10:24:00,72.5,70.1,29.88,NE,45,0.0,0.0,92,0.00,,---,0.00,VWS V14.00,2013-06-27 14:24:00,
2013-06-27 10:29:00,73.2,70.8,29.88,ESE,112,0.0,0.0,92,0.00,,---,0.00,VWS V14.00,2013-06-27 14:29:00,
2013-06-27 10:34:00,73.4,70.6,29.88,ESE,112,0.0,0.0,91,0.00,,---,0.00,VWS V14.00,2013-06-27 14:34:00,
2013-06-27 10:39:00,73.8,70.7,29.88,SE,135,0.0,0.0,90,0.00,,---,0.00,VWS V14.00,2013-06-27 14:39:00,
2013-06-27 10:44:00,74.7,71.5,29.88,SSE,158,0.0,0.0,90,0.00,,---,0.00,VWS V14.00,2013-06-27 14:44:00,
2013-06-27 10:49:00,75.0,71.9,29.88,NE,45,1.1,2.5,90,0.00,,---,0.00,VWS V14.00,2013-06-27 14:49:00,
2013-06-27 10:54:00,75.6,71.8,29.88,NE,45,0.0,0.0,88,0.00,,---,0.00,VWS V14.00,2013-06-27 14:54:00,
2013-06-27 10:59:00,75.7,71.9,29.88,NE,45,0.0,0.0,88,0.00,,---,0.00,VWS V14.00,2013-06-27 14:59:00,
2013-06-27 11:04:00,75.6,71.1,29.88,SE,135,0.0,1.1,86,0.00,,---,0.00,VWS V14.00,2013-06-27 15:04:00,
2013-06-27 11:09:00,75.7,71.3,29.88,East,90,0.0,0.0,86,0.00,,---,0.00,VWS V14.00,2013-06-27 15:09:00,
2013-06-27 11:14:00,75.2,70.7,29.88,East,90,0.0,0.0,86,0.00,,---,0.00,VWS V14.00,2013-06-27 15:14:00,
2013-06-27 11:19:00,74.8,70.0,29.88,SE,135,0.0,0.0,85,0.00,,---,0.00,VWS V14.00,2013-06-27 15:19:00,
2013-06-27 11:24:00,74.5,70.0,29.88,SE,135,0.0,0.0,86,0.00,,---,0.00,VWS V14.00,2013-06-27 15:24:00,
2013-06-27 11:29:00,74.3,69.8,29.88,SE,135,0.0,0.0,86,0.00,,---,0.00,VWS V14.00,2013-06-27 15:29:00,
2013-06-27 11:34:00,74.3,70.2,29.88,SE,135,0.0,0.0,87,0.00,,---,0.00,VWS V14.00,2013-06-27 15:34:00,
2013-06-27 11:39:00,74.3,70.2,29.91,ENE,68,0.0,0.0,87,0.00,,---,0.00,VWS V14.00,2013-06-27 15:39:00,
2013-06-27 11:44:00,74.3,70.2,29.91,ENE,68,0.0,0.0,87,0.00,,---,0.00,VWS V14.00,2013-06-27 15:44:00,
2013-06-27 11:49:00,74.7,70.5,29.91,ENE,68,0.0,0.0,87,0.00,,---,0.00,VWS V14.00,2013-06-27 15:49:00,
2013-06-27 11:54:00,75.0,70.9,29.88,ENE,68,0.0,0.0,87,0.00,,---,0.00,VWS V14.00,2013-06-27 15:54:00,
2013-06-27 11:59:00,75.0,70.9,29.88,East,90,0.0,0.0,87,0.00,,---,0.00,VWS V14.00,2013-06-27 15:59:00,
2013-06-27 12:04:00,74.8,70.7,29.88,NNW,338,2.0,2.0,87,0.00,,---,0.00,VWS V14.00,2013-06-27 16:04:00,
2013-06-27 12:09:00,74.8,70.4,29.88,NE,45,0.9,2.2,86,0.00,,---,0.00,VWS V14.00,2013-06-27 16:09:00,
2013-06-27 12:14:00,76.1,71.6,29.88,NE,45,1.1,1.3,86,0.00,,---,0.00,VWS V14.00,2013-06-27 16:14:00,
2013-06-27 12:19:00,77.2,72.0,29.88,East,90,0.9,1.3,84,0.00,,---,0.00,VWS V14.00,2013-06-27 16:19:00,
2013-06-27 12:24:00,76.6,71.4,29.88,South,180,0.0,0.0,84,0.00,,---,0.00,VWS V14.00,2013-06-27 16:24:00,
2013-06-27 12:29:00,76.1,70.9,29.88,ESE,112,0.0,0.9,84,0.00,,---,0.00,VWS V14.00,2013-06-27 16:29:00,
2013-06-27 12:34:00,75.9,71.1,29.88,ESE,112,0.0,0.0,85,0.00,,---,0.00,VWS V14.00,2013-06-27 16:34:00,
2013-06-27 12:39:00,75.6,70.4,29.85,NW,315,0.0,0.0,84,0.00,,---,0.00,VWS V14.00,2013-06-27 16:39:00,
2013-06-27 12:44:00,75.2,70.0,29.85,NE,45,0.0,0.0,84,0.00,,---,0.00,VWS V14.00,2013-06-27 16:44:00,
2013-06-27 12:49:00,74.7,69.5,29.85,SSE,158,0.0,0.0,84,0.00,,---,0.00,VWS V14.00,2013-06-27 16:49:00,
2013-06-27 12:54:00,74.8,70.0,29.85,ESE,112,0.0,0.0,85,0.00,,---,0.00,VWS V14.00,2013-06-27 16:54:00,
2013-06-27 12:59:00,75.2,70.0,29.85,NW,315,0.9,0.9,84,0.00,,---,0.00,VWS V14.00,2013-06-27 16:59:00,
2013-06-27 13:04:00,75.9,70.7,29.85,NW,315,1.3,1.3,84,0.00,,---,0.00,VWS V14.00,2013-06-27 17:04:00,
2013-06-27 13:09:00,76.5,70.9,29.85,East,90,0.0,0.0,83,0.00,,---,0.00,VWS V14.00,2013-06-27 17:09:00,
2013-06-27 13:14:00,76.8,71.6,29.85,NE,45,1.1,1.3,84,0.00,,---,0.00,VWS V14.00,2013-06-27 17:14:00,
2013-06-27 13:19:00,76.8,71.3,29.85,SE,135,0.9,0.9,83,0.00,,---,0.00,VWS V14.00,2013-06-27 17:19:00,
2013-06-27 13:24:00,76.5,70.6,29.85,ENE,68,0.0,0.0,82,0.00,,---,0.00,VWS V14.00,2013-06-27 17:24:00,
2013-06-27 13:29:00,76.1,70.2,29.85,SE,135,0.0,0.0,82,0.00,,---,0.00,VWS V14.00,2013-06-27 17:29:00,
2013-06-27 13:34:00,76.3,70.4,29.85,ESE,112,0.0,1.3,82,0.00,,---,0.00,VWS V14.00,2013-06-27 17:34:00,
2013-06-27 13:39:00,76.6,70.7,29.85,ESE,112,0.0,0.0,82,0.00,,---,0.00,VWS V14.00,2013-06-27 17:39:00,
2013-06-27 13:44:00,76.6,70.7,29.85,ESE,112,0.0,0.0,82,0.00,,---,0.00,VWS V14.00,2013-06-27 17:44:00,
2013-06-27 13:45:00,76.6,70.7,29.85,ESE,112,1.6,1.6,82,0.00,,---,0.00,VWS V14.00,2013-06-27 17:45:00,
2013-06-27 13:50:00,77.5,71.2,29.85,NW,315,0.0,0.0,81,0.00,,---,0.00,VWS V14.00,2013-06-27 17:50:00,
2013-06-27 13:55:00,79.0,71.9,29.85,NE,45,0.0,0.0,79,0.00,,---,0.00,VWS V14.00,2013-06-27 17:55:00,
2013-06-27 14:00:00,79.5,72.1,29.85,East,90,0.0,0.0,78,0.00,,---,0.00,VWS V14.00,2013-06-27 18:00:00,
2013-06-27 14:05:00,79.7,71.9,29.85,ENE,68,0.9,0.9,77,0.00,,---,0.00,VWS V14.00,2013-06-27 18:05:00,
2013-06-27 14:10:00,83.3,74.2,29.85,East,90,2.5,2.5,74,0.00,,---,0.00,VWS V14.00,2013-06-27 18:10:00,
2013-06-27 14:15:00,83.8,71.7,29.85,NE,45,0.9,2.5,67,0.00,,---,0.00,VWS V14.00,2013-06-27 18:15:00,
2013-06-27 14:20:00,81.9,70.3,29.85,NE,45,0.0,2.9,68,0.00,,---,0.00,VWS V14.00,2013-06-27 18:20:00,
2013-06-27 14:25:00,81.1,70.4,29.85,SE,135,1.3,1.3,70,0.00,,---,0.00,VWS V14.00,2013-06-27 18:25:00,
2013-06-27 14:30:00,81.1,71.3,29.85,SE,135,1.6,2.0,72,0.00,,---,0.00,VWS V14.00,2013-06-27 18:30:00,
2013-06-27 14:35:00,82.6,71.8,29.85,NNE,22,1.1,1.1,70,0.00,,---,0.00,VWS V14.00,2013-06-27 18:35:00,
2013-06-27 14:40:00,82.8,71.1,29.85,NE,45,2.2,2.2,68,0.00,,---,0.00,VWS V14.00,2013-06-27 18:40:00,
2013-06-27 14:45:00,85.3,73.1,29.85,East,90,1.6,1.6,67,0.00,,---,0.00,VWS V14.00,2013-06-27 18:45:00,
2013-06-27 14:50:00,85.8,72.7,29.85,NE,45,2.9,2.9,65,0.00,,---,0.00,VWS V14.00,2013-06-27 18:50:00,
2013-06-27 14:55:00,82.9,70.9,29.85,ESE,112,0.0,0.9,67,0.00,,---,0.00,VWS V14.00,2013-06-27 18:55:00,
2013-06-27 15:00:00,82.4,70.3,29.85,ENE,68,1.1,2.2,67,0.00,,---,0.00,VWS V14.00,2013-06-27 19:00:00,
2013-06-27 15:05:00,81.7,70.1,29.85,NNE,22,1.6,3.1,68,0.00,,---,0.00,VWS V14.00,2013-06-27 19:05:00,
2013-06-27 15:10:00,82.6,71.0,29.85,NE,45,0.0,0.0,68,0.00,,---,0.00,VWS V14.00,2013-06-27 19:10:00,
2013-06-27 15:15:00,86.0,71.9,29.85,SW,225,0.0,0.0,63,0.00,,---,0.00,VWS V14.00,2013-06-27 19:15:00,
2013-06-27 15:20:00,88.0,73.8,29.85,NW,315,2.5,3.1,63,0.00,,---,0.00,VWS V14.00,2013-06-27 19:20:00,
2013-06-27 15:25:00,87.4,72.3,29.85,ESE,112,2.0,2.5,61,0.00,,---,0.00,VWS V14.00,2013-06-27 19:25:00,
2013-06-27 15:30:00,87.8,72.7,29.85,North,0,3.4,3.4,61,0.00,,---,0.00,VWS V14.00,2013-06-27 19:30:00,
2013-06-27 15:35:00,85.5,71.0,29.85,SE,135,0.0,0.9,62,0.00,,---,0.00,VWS V14.00,2013-06-27 19:35:00,
2013-06-27 15:39:00,85.1,70.2,29.85,ESE,112,0.0,3.1,61,0.00,,---,0.00,VWS V14.00,2013-06-27 19:39:00,
2013-06-27 15:44:00,83.8,69.4,29.85,ENE,68,1.6,2.2,62,0.00,,---,0.00,VWS V14.00,2013-06-27 19:44:00,
2013-06-27 15:49:00,83.8,70.4,29.85,East,90,0.0,1.6,64,0.00,,---,0.00,VWS V14.00,2013-06-27 19:49:00,
2013-06-27 15:54:00,83.5,70.0,29.85,ESE,112,1.6,2.0,64,0.00,,---,0.00,VWS V14.00,2013-06-27 19:54:00,
2013-06-27 15:59:00,82.6,69.6,29.85,ESE,112,0.9,2.0,65,0.00,,---,0.00,VWS V14.00,2013-06-27 19:59:00,
2013-06-27 16:05:00,79.9,67.9,29.85,SE,135,0.0,3.4,67,0.00,,---,0.00,VWS V14.00,2013-06-27 20:05:00,
2013-06-27 16:10:00,80.1,68.6,29.85,East,90,3.4,3.4,68,0.00,,---,0.00,VWS V14.00,2013-06-27 20:10:00,
2013-06-27 16:15:00,80.1,69.0,29.85,ENE,68,2.0,2.0,69,0.00,,---,0.00,VWS V14.00,2013-06-27 20:15:00,
2013-06-27 16:19:00,78.4,68.7,29.85,ESE,112,0.0,0.0,72,0.00,,---,0.00,VWS V14.00,2013-06-27 20:19:00,
2013-06-27 16:24:00,76.5,67.6,29.85,ESE,112,0.0,1.1,74,0.00,,---,0.00,VWS V14.00,2013-06-27 20:24:00,
2013-06-27 16:30:00,75.7,67.3,29.85,SE,135,0.9,2.2,75,0.00,,---,0.00,VWS V14.00,2013-06-27 20:30:00,
2013-06-27 16:35:00,75.6,67.8,29.85,SE,135,0.0,1.1,77,0.00,,---,0.00,VWS V14.00,2013-06-27 20:35:00,
2013-06-27 16:40:00,75.2,67.9,29.85,NW,315,1.6,1.6,78,0.00,,---,0.00,VWS V14.00,2013-06-27 20:40:00,
2013-06-27 16:45:00,75.0,67.7,29.85,East,90,0.0,0.0,78,0.00,,---,0.00,VWS V14.00,2013-06-27 20:45:00,
2013-06-27 16:50:00,74.8,67.9,29.85,NNE,22,2.9,2.9,79,0.00,,---,0.00,VWS V14.00,2013-06-27 20:50:00,
2013-06-27 16:55:00,74.8,68.3,29.82,SSW,202,1.6,1.6,80,0.00,,---,0.00,VWS V14.00,2013-06-27 20:55:00,
2013-06-27 17:00:00,74.5,67.9,29.82,ESE,112,0.0,0.0,80,0.00,,---,0.00,VWS V14.00,2013-06-27 21:00:00,
2013-06-27 17:05:00,74.5,67.9,29.82,SSE,158,2.5,2.5,80,0.00,,---,0.00,VWS V14.00,2013-06-27 21:05:00,
2013-06-27 17:10:00,74.8,68.6,29.82,North,0,2.2,2.2,81,0.00,,---,0.00,VWS V14.00,2013-06-27 21:10:00,
2013-06-27 17:15:00,75.7,69.1,29.82,NE,45,1.1,2.5,80,0.00,,---,0.00,VWS V14.00,2013-06-27 21:15:00,
2013-06-27 17:20:00,75.9,68.9,29.82,SE,135,2.5,2.5,79,0.00,,---,0.00,VWS V14.00,2013-06-27 21:20:00,
2013-06-27 17:25:00,76.1,69.1,29.82,SE,135,0.0,0.0,79,0.00,,---,0.00,VWS V14.00,2013-06-27 21:25:00,
2013-06-27 17:30:00,75.6,68.6,29.82,NE,45,1.3,1.3,79,0.00,,---,0.00,VWS V14.00,2013-06-27 21:30:00,
2013-06-27 17:35:00,74.8,67.9,29.82,NE,45,0.0,0.0,79,0.00,,---,0.00,VWS V14.00,2013-06-27 21:35:00,
2013-06-27 17:40:00,74.1,67.6,29.79,NNE,22,2.5,2.5,80,0.00,,---,0.00,VWS V14.00,2013-06-27 21:40:00,
2013-06-27 17:45:00,73.8,67.6,29.79,ENE,68,1.3,2.2,81,0.00,,---,0.00,VWS V14.00,2013-06-27 21:45:00,
2013-06-27 17:50:00,73.2,67.4,29.79,SE,135,1.1,1.1,82,0.00,,---,0.00,VWS V14.00,2013-06-27 21:50:00,
2013-06-27 17:55:00,73.0,67.9,29.82,NNE,22,1.6,1.6,84,0.00,,---,0.00,VWS V14.00,2013-06-27 21:55:00,
2013-06-27 18:00:00,72.9,67.8,29.82,ENE,68,0.0,2.0,84,0.00,,---,0.00,VWS V14.00,2013-06-27 22:00:00,
2013-06-27 18:06:00,72.7,67.9,29.82,SE,135,0.9,0.9,85,0.00,,---,0.00,VWS V14.00,2013-06-27 22:06:00,
2013-06-27 18:11:00,72.7,67.9,29.79,SE,135,2.5,2.5,85,0.00,,---,0.00,VWS V14.00,2013-06-27 22:11:00,
2013-06-27 18:16:00,72.5,68.1,29.79,South,180,0.0,2.0,86,0.00,,---,0.00,VWS V14.00,2013-06-27 22:16:00,
2013-06-27 18:21:00,72.3,67.9,29.79,SE,135,0.0,1.6,86,0.00,,---,0.00,VWS V14.00,2013-06-27 22:21:00,
2013-06-27 18:26:00,72.1,68.1,29.79,NE,45,1.3,1.3,87,0.00,,---,0.00,VWS V14.00,2013-06-27 22:26:00,
2013-06-27 18:31:00,72.0,67.9,29.79,SE,135,0.0,0.9,87,0.00,,---,0.00,VWS V14.00,2013-06-27 22:31:00,
2013-06-27 18:36:00,71.8,67.7,29.79,SE,135,0.0,0.0,87,0.00,,---,0.00,VWS V14.00,2013-06-27 22:36:00,
2013-06-27 18:41:00,71.8,68.0,29.82,ESE,112,0.0,0.0,88,0.00,,---,0.00,VWS V14.00,2013-06-27 22:41:00,
2013-06-27 18:46:00,71.8,68.0,29.82,ESE,112,0.0,0.0,88,0.00,,---,0.00,VWS V14.00,2013-06-27 22:46:00,
2013-06-27 18:51:00,71.6,67.9,29.82,ENE,68,0.0,4.0,88,0.00,,---,0.00,VWS V14.00,2013-06-27 22:51:00,
2013-06-27 18:56:00,71.6,68.2,29.79,East,90,2.2,2.2,89,0.00,,---,0.00,VWS V14.00,2013-06-27 22:56:00,
2013-06-27 19:01:00,71.4,68.0,29.79,ESE,112,0.0,0.0,89,0.00,,---,0.00,VWS V14.00,2013-06-27 23:01:00,
2013-06-27 19:06:00,71.4,68.0,29.79,SE,135,0.0,0.0,89,0.00,,---,0.00,VWS V14.00,2013-06-27 23:06:00,
2013-06-27 19:11:00,71.4,68.0,29.79,NE,45,0.0,2.7,89,0.00,,---,0.00,VWS V14.00,2013-06-27 23:11:00,
2013-06-27 19:16:00,71.2,68.2,29.79,SW,225,0.0,0.0,90,0.00,,---,0.00,VWS V14.00,2013-06-27 23:16:00,
2013-06-27 19:21:00,71.1,68.0,29.79,East,90,0.0,0.0,90,0.00,,---,0.00,VWS V14.00,2013-06-27 23:21:00,
2013-06-27 19:26:00,71.1,68.0,29.82,East,90,0.0,0.0,90,0.00,,---,0.00,VWS V14.00,2013-06-27 23:26:00,
2013-06-27 19:31:00,70.9,67.8,29.82,SE,135,0.0,1.3,90,0.00,,---,0.00,VWS V14.00,2013-06-27 23:31:00,
2013-06-27 19:37:00,70.7,67.6,29.82,SE,135,0.0,0.0,90,0.00,,---,0.00,VWS V14.00,2013-06-27 23:37:00,
2013-06-27 19:42:00,70.7,67.9,29.82,SE,135,0.0,0.0,91,0.00,,---,0.00,VWS V14.00,2013-06-27 23:42:00,
2013-06-27 19:46:00,70.5,67.8,29.82,SE,135,0.9,0.9,91,0.00,,---,0.00,VWS V14.00,2013-06-27 23:46:00,
2013-06-27 19:51:00,70.5,67.8,29.82,NE,45,0.0,2.2,91,0.00,,---,0.00,VWS V14.00,2013-06-27 23:51:00,
2013-06-27 19:56:00,70.3,67.6,29.82,SSE,158,0.0,2.0,91,0.00,,---,0.00,VWS V14.00,2013-06-27 23:56:00,
2013-06-27 20:02:00,70.3,67.6,29.82,SE,135,0.0,0.0,91,0.00,,---,0.00,VWS V14.00,2013-06-28 00:02:00,
2013-06-27 20:07:00,70.2,67.4,29.82,SE,135,0.0,0.0,91,0.00,,---,0.00,VWS V14.00,2013-06-28 00:07:00,
2013-06-27 20:12:00,70.2,67.4,29.82,SE,135,0.0,0.0,91,0.00,,---,0.00,VWS V14.00,2013-06-28 00:12:00,
2013-06-27 20:17:00,70.2,67.7,29.82,SW,225,0.0,0.9,92,0.00,,---,0.00,VWS V14.00,2013-06-28 00:17:00,
2013-06-27 20:22:00,70.2,67.7,29.82,East,90,0.0,0.0,92,0.00,,---,0.00,VWS V14.00,2013-06-28 00:22:00,
2013-06-27 20:27:00,70.0,67.6,29.79,ENE,68,0.0,0.0,92,0.00,,---,0.00,VWS V14.00,2013-06-28 00:27:00,
2013-06-27 20:32:00,70.0,67.6,29.79,SSW,202,0.0,0.0,92,0.00,,---,0.00,VWS V14.00,2013-06-28 00:32:00,
2013-06-27 20:37:00,70.0,67.6,29.79,East,90,0.0,0.0,92,0.00,,---,0.00,VWS V14.00,2013-06-28 00:37:00,
2013-06-27 20:42:00,70.0,67.6,29.79,East,90,0.0,0.0,92,0.00,,---,0.00,VWS V14.00,2013-06-28 00:42:00,
2013-06-27 20:47:00,70.0,67.6,29.79,NNW,338,0.0,2.5,92,0.00,,---,0.00,VWS V14.00,2013-06-28 00:47:00,
2013-06-27 20:52:00,70.0,67.9,29.79,NE,45,0.0,0.0,93,0.00,,---,0.00,VWS V14.00,2013-06-28 00:52:00,
2013-06-27 20:57:00,70.0,67.6,29.79,NE,45,0.0,0.0,92,0.00,,---,0.00,VWS V14.00,2013-06-28 00:57:00,
2013-06-27 21:02:00,70.0,67.6,29.79,East,90,0.0,0.0,92,0.00,,---,0.00,VWS V14.00,2013-06-28 01:02:00,
2013-06-27 21:07:00,70.0,67.9,29.79,East,90,0.0,4.3,93,0.00,,---,0.00,VWS V14.00,2013-06-28 01:07:00,
2013-06-27 21:12:00,70.0,67.9,29.79,NE,45,0.0,0.0,93,0.00,,---,0.00,VWS V14.00,2013-06-28 01:12:00,
2013-06-27 21:17:00,70.0,67.9,29.79,ENE,68,0.0,0.0,93,0.00,,---,0.00,VWS V14.00,2013-06-28 01:17:00,
2013-06-27 21:22:00,70.0,67.9,29.79,SE,135,0.0,0.0,93,0.00,,---,0.00,VWS V14.00,2013-06-28 01:22:00,
2013-06-27 21:27:00,70.0,67.9,29.79,SE,135,0.0,0.0,93,0.00,,---,0.00,VWS V14.00,2013-06-28 01:27:00,
2013-06-27 21:32:00,70.0,67.9,29.79,SE,135,0.0,0.0,93,0.00,,---,0.00,VWS V14.00,2013-06-28 01:32:00,
2013-06-27 21:38:00,70.2,68.1,29.82,NE,45,0.0,1.1,93,0.00,,---,0.00,VWS V14.00,2013-06-28 01:38:00,
2013-06-27 21:43:00,70.0,67.9,29.82,NE,45,1.6,1.6,93,0.00,,---,0.00,VWS V14.00,2013-06-28 01:43:00,
2013-06-27 21:48:00,70.0,67.9,29.82,NE,45,0.0,0.9,93,0.00,,---,0.00,VWS V14.00,2013-06-28 01:48:00,
2013-06-27 21:53:00,69.8,67.7,29.82,ENE,68,0.0,2.0,93,0.00,,---,0.00,VWS V14.00,2013-06-28 01:53:00,
2013-06-27 21:58:00,69.4,67.3,29.82,ENE,68,0.0,0.0,93,0.00,,---,0.00,VWS V14.00,2013-06-28 01:58:00,
2013-06-27 22:03:00,69.3,67.2,29.82,SE,135,1.6,2.0,93,0.00,,---,0.00,VWS V14.00,2013-06-28 02:03:00,
2013-06-27 22:08:00,69.1,67.0,29.79,North,0,1.3,1.3,93,0.00,,---,0.00,VWS V14.00,2013-06-28 02:08:00,
2013-06-27 22:13:00,68.9,67.1,29.79,NW,315,3.4,3.4,94,0.00,,---,0.00,VWS V14.00,2013-06-28 02:13:00,
2013-06-27 22:18:00,68.7,66.9,29.79,SE,135,0.0,1.6,94,0.00,,---,0.00,VWS V14.00,2013-06-28 02:18:00,
2013-06-27 22:23:00,68.5,66.8,29.79,East,90,0.0,0.0,94,0.00,,---,0.00,VWS V14.00,2013-06-28 02:23:00,
2013-06-27 22:28:00,68.4,66.6,29.79,NE,45,0.0,0.0,94,0.00,,---,0.00,VWS V14.00,2013-06-28 02:28:00,
2013-06-27 22:33:00,68.4,66.6,29.79,ESE,112,0.0,2.2,94,0.00,,---,0.00,VWS V14.00,2013-06-28 02:33:00,
2013-06-27 22:38:00,68.2,66.4,29.79,NNE,22,3.1,3.1,94,0.00,,---,0.00,VWS V14.00,2013-06-28 02:38:00,
2013-06-27 22:43:00,68.0,66.2,29.79,NNW,338,2.5,3.1,94,0.00,,---,0.00,VWS V14.00,2013-06-28 02:43:00,
2013-06-27 22:48:00,68.0,66.2,29.79,East,90,1.3,3.6,94,0.00,,---,0.00,VWS V14.00,2013-06-28 02:48:00,
2013-06-27 22:53:00,67.8,66.3,29.76,NE,45,0.0,3.1,95,0.00,,---,0.00,VWS V14.00,2013-06-28 02:53:00,
2013-06-27 22:58:00,67.8,66.3,29.76,SE,135,1.1,2.2,95,0.00,,---,0.00,VWS V14.00,2013-06-28 02:58:00,
2013-06-27 23:03:00,67.6,66.2,29.76,SSW,202,0.9,0.9,95,0.00,,---,0.00,VWS V14.00,2013-06-28 03:03:00,
2013-06-27 23:08:00,67.5,66.0,29.76,ESE,112,0.0,0.0,95,0.00,,---,0.00,VWS V14.00,2013-06-28 03:08:00,
2013-06-27 23:13:00,67.5,66.0,29.76,WNW,292,2.5,2.5,95,0.00,,---,0.00,VWS V14.00,2013-06-28 03:13:00,
2013-06-27 23:18:00,67.3,65.8,29.76,SW,225,2.5,2.5,95,0.00,,---,0.00,VWS V14.00,2013-06-28 03:18:00,
2013-06-27 23:23:00,67.1,65.6,29.76,NE,45,3.6,3.6,95,0.00,,---,0.00,VWS V14.00,2013-06-28 03:23:00,
2013-06-27 23:28:00,66.9,65.4,29.76,NE,45,3.1,3.1,95,0.00,,---,0.00,VWS V14.00,2013-06-28 03:28:00,
2013-06-27 23:33:00,66.9,65.4,29.76,ENE,68,0.0,2.5,95,0.00,,---,0.00,VWS V14.00,2013-06-28 03:33:00,
2013-06-27 23:39:00,66.7,65.3,29.76,ESE,112,0.0,0.0,95,0.00,,---,0.00,VWS V14.00,2013-06-28 03:39:00,
2013-06-27 23:44:00,66.7,65.3,29.76,North,0,3.4,3.8,95,0.00,,---,0.00,VWS V14.00,2013-06-28 03:44:00,
2013-06-27 23:49:00,66.7,65.3,29.76,NNE,22,2.5,2.5,95,0.00,,---,0.00,VWS V14.00,2013-06-28 03:49:00,
2013-06-27 23:54:00,66.6,65.1,29.76,ENE,68,3.1,3.1,95,0.00,,---,0.00,VWS V14.00,2013-06-28 03:54:00,
2013-06-27 23:59:00,66.6,65.1,29.76,East,90,0.0,0.0,95,0.00,,---,0.00,VWS V14.00,2013-06-28 03:59:00,